Time;durP1;ratioP1;P1;durP2;ratioP2;P2;SDS_P1;SDS_P2;PMS_P1;PMS_P2;Temp;Humidity;BMP_temperature;BMP_pressure;BME280_temperature;BME280_humidity;BME280_pressure;Samples;Min_cycle;Max_cycle;Signal;HPM_P1;HPM_P2
2024/01/23 00:01:09;;;;;;;0.00;0.00;;;7.00;99.90;;;;;;5091606;28;20187;-66
2024/01/23 00:03:34;;;;;;;0.00;0.00;;;7.00;99.90;;;;;;5091478;28;20254;-67
2024/01/23 00:06:00;;;;;;;0.10;0.10;;;7.00;99.90;;;;;;5089987;28;20287;-66
2024/01/23 00:08:26;;;;;;;0.00;0.00;;;7.00;99.90;;;;;;5090950;28;20535;-65
2024/01/23 00:10:51;;;;;;;0.00;0.00;;;7.00;99.90;;;;;;5094752;28;20635;-66
2024/01/23 00:13:17;;;;;;;0.00;0.00;;;6.90;99.90;;;;;;5091404;28;20195;-66
2024/01/23 00:15:42;;;;;;;0.00;0.00;;;7.00;99.90;;;;;;5089926;28;20231;-66
2024/01/23 00:18:08;;;;;;;0.00;0.00;;;7.00;99.90;;;;;;5091421;28;20192;-66
2024/01/23 00:20:33;;;;;;;0.00;0.00;;;7.00;99.90;;;;;;5091126;28;20180;-66
2024/01/23 00:22:59;;;;;;;0.00;0.00;;;7.00;99.90;;;;;;5091497;28;20184;-66
2024/01/23 00:25:24;;;;;;;0.00;0.00;;;7.00;99.90;;;;;;5091143;28;20191;-66
2024/01/23 00:27:50;;;;;;;0.00;0.00;;;7.00;99.90;;;;;;5091269;28;20706;-66
2024/01/23 00:30:15;;;;;;;0.00;0.00;;;7.00;99.90;;;;;;5090993;28;20194;-65
2024/01/23 00:32:41;;;;;;;0.00;0.00;;;7.00;99.90;;;;;;5124001;27;20184;-66
2024/01/23 00:35:07;;;;;;;0.00;0.00;;;7.00;99.90;;;;;;5089110;28;20183;-66
2024/01/23 00:37:33;;;;;;;0.00;0.00;;;6.90;99.90;;;;;;5090971;28;20542;-66
2024/01/23 00:40:00;;;;;;;0.00;0.00;;;6.90;99.90;;;;;;5090651;28;20220;-66
2024/01/23 00:42:25;;;;;;;0.00;0.00;;;6.90;99.90;;;;;;5090554;28;20181;-66
2024/01/23 00:44:53;;;;;;;0.00;0.00;;;6.90;99.90;;;;;;5090522;28;20176;-65
2024/01/23 00:47:18;;;;;;;0.00;0.00;;;6.90;99.90;;;;;;5091078;28;20280;-66
2024/01/23 00:49:44;;;;;;;0.00;0.00;;;6.90;99.90;;;;;;5090438;28;20582;-65
2024/01/23 00:52:09;;;;;;;0.20;0.20;;;6.90;99.90;;;;;;5090881;28;20234;-66
2024/01/23 00:54:35;;;;;;;0.00;0.00;;;6.90;99.90;;;;;;5090515;28;20267;-65
2024/01/23 00:57:00;;;;;;;0.00;0.00;;;6.90;99.90;;;;;;5090839;28;20172;-66
2024/01/23 00:59:26;;;;;;;0.00;0.00;;;6.90;99.90;;;;;;5089837;28;20543;-66
2024/01/23 01:01:51;;;;;;;0.00;0.00;;;6.90;99.90;;;;;;5090663;28;20184;-66
2024/01/23 01:04:18;;;;;;;0.00;0.00;;;6.90;99.90;;;;;;5090578;28;20180;-67
2024/01/23 01:06:44;;;;;;;0.00;0.00;;;6.90;99.90;;;;;;5090430;28;20208;-65
2024/01/23 01:09:09;;;;;;;0.00;0.00;;;6.90;99.90;;;;;;5090575;28;20176;-66
2024/01/23 01:11:35;;;;;;;0.00;0.00;;;7.00;99.90;;;;;;5090535;28;20651;-66
2024/01/23 01:14:01;;;;;;;0.00;0.00;;;7.00;99.90;;;;;;5090813;28;20184;-66
2024/01/23 01:16:26;;;;;;;0.00;0.00;;;7.00;99.90;;;;;;5090335;28;20184;-65
2024/01/23 01:18:53;;;;;;;0.00;0.00;;;7.00;99.90;;;;;;5090795;28;20191;-66
2024/01/23 01:21:18;;;;;;;0.15;0.15;;;7.00;99.90;;;;;;5090578;28;20241;-67
2024/01/23 01:23:44;;;;;;;0.00;0.00;;;7.00;99.90;;;;;;5090469;28;20175;-65
2024/01/23 01:26:10;;;;;;;0.00;0.00;;;7.10;99.90;;;;;;5090154;28;20683;-67
2024/01/23 01:28:36;;;;;;;0.00;0.00;;;7.10;99.90;;;;;;5088883;28;20229;-66
2024/01/23 01:31:02;;;;;;;0.00;0.00;;;7.10;99.90;;;;;;5090308;28;20178;-67
2024/01/23 01:33:28;;;;;;;0.00;0.00;;;7.10;99.90;;;;;;5090491;28;20263;-66
2024/01/23 01:35:54;;;;;;;0.00;0.00;;;7.10;99.90;;;;;;5089803;28;20188;-67
2024/01/23 01:38:20;;;;;;;0.00;0.00;;;7.00;99.90;;;;;;5090269;28;20207;-66
2024/01/23 01:40:45;;;;;;;0.00;0.00;;;6.90;99.90;;;;;;5089647;28;20275;-66
2024/01/23 01:43:29;;;;;;;0.00;0.00;;;6.80;99.90;;;;;;5090558;28;20184;-65
2024/01/23 01:46:20;;;;;;;0.00;0.00;;;6.70;99.90;;;;;;5091407;28;20654;-65
2024/01/23 01:48:46;;;;;;;0.00;0.00;;;6.60;99.90;;;;;;5093944;28;20302;-65
2024/01/23 01:51:13;;;;;;;0.00;0.00;;;6.60;99.90;;;;;;5094295;28;20207;-66
2024/01/23 01:53:39;;;;;;;0.00;0.00;;;6.60;99.90;;;;;;5093986;28;20206;-66
2024/01/23 01:56:06;;;;;;;0.00;0.00;;;6.50;99.90;;;;;;5093520;28;20184;-66
2024/01/23 01:58:32;;;;;;;0.00;0.00;;;6.40;99.90;;;;;;5093854;28;20649;-66
2024/01/23 02:01:00;;;;;;;0.00;0.00;;;6.40;99.90;;;;;;5093912;28;20176;-66
2024/01/23 02:03:26;;;;;;;0.00;0.00;;;6.30;99.90;;;;;;5094012;28;20264;-66
2024/01/23 02:05:52;;;;;;;0.00;0.00;;;6.30;99.90;;;;;;5093819;28;20674;-65
2024/01/23 02:08:18;;;;;;;0.00;0.00;;;6.30;99.90;;;;;;5094090;28;20180;-66
2024/01/23 02:10:44;;;;;;;0.08;0.08;;;6.30;99.90;;;;;;5093698;28;20187;-66
2024/01/23 02:13:10;;;;;;;0.00;0.00;;;6.30;99.90;;;;;;5094183;28;20179;-66
2024/01/23 02:15:35;;;;;;;0.00;0.00;;;6.30;99.90;;;;;;5093619;28;20168;-65
2024/01/23 02:18:01;;;;;;;0.00;0.00;;;6.30;99.90;;;;;;5082219;28;20200;-63
2024/01/23 02:20:27;;;;;;;0.00;0.00;;;6.20;99.90;;;;;;5091599;28;20180;-64
2024/01/23 02:22:53;;;;;;;0.00;0.00;;;6.20;99.90;;;;;;5094737;28;20599;-64
2024/01/23 02:25:19;;;;;;;0.00;0.00;;;6.20;99.90;;;;;;5094395;28;20199;-64
2024/01/23 02:27:44;;;;;;;0.00;0.00;;;6.10;99.90;;;;;;5094217;28;20239;-65
2024/01/23 02:30:11;;;;;;;0.10;0.10;;;6.10;99.90;;;;;;5093231;28;20274;-66
2024/01/23 02:32:36;;;;;;;0.00;0.00;;;6.10;99.90;;;;;;5093181;28;20553;-66
2024/01/23 02:35:02;;;;;;;0.63;0.63;;;6.10;99.90;;;;;;5093118;28;20254;-65
2024/01/23 02:37:27;;;;;;;0.00;0.00;;;6.10;99.90;;;;;;5093241;28;20226;-64
2024/01/23 02:39:54;;;;;;;0.00;0.00;;;6.20;99.90;;;;;;5092383;28;20215;-65
2024/01/23 02:42:20;;;;;;;0.10;0.10;;;6.20;99.90;;;;;;5093080;28;20542;-65
2024/01/23 02:44:45;;;;;;;0.00;0.00;;;6.20;99.90;;;;;;5092806;28;20243;-65
2024/01/23 02:47:11;;;;;;;0.00;0.00;;;6.20;99.90;;;;;;5091841;28;20219;-65
2024/01/23 02:49:37;;;;;;;0.00;0.00;;;6.20;99.90;;;;;;5092808;28;20184;-64
2024/01/23 02:52:03;;;;;;;0.00;0.00;;;6.30;99.90;;;;;;5092519;28;20191;-66
2024/01/23 02:54:30;;;;;;;0.00;0.00;;;6.30;99.90;;;;;;5093029;28;20180;-65
2024/01/23 02:56:56;;;;;;;0.00;0.00;;;6.30;99.90;;;;;;5092647;28;20208;-66
2024/01/23 02:59:22;;;;;;;0.00;0.00;;;6.40;99.90;;;;;;5092805;28;20218;-66
2024/01/23 03:01:47;;;;;;;0.00;0.00;;;6.40;99.90;;;;;;5092956;28;20191;-66
2024/01/23 03:04:13;;;;;;;0.00;0.00;;;6.50;99.90;;;;;;5091729;28;20769;-66
2024/01/23 03:06:38;;;;;;;0.00;0.00;;;6.50;99.90;;;;;;5092555;28;20208;-65
2024/01/23 03:09:06;;;;;;;0.00;0.00;;;6.60;99.90;;;;;;5093024;28;20180;-66
2024/01/23 03:11:32;;;;;;;0.00;0.00;;;6.60;99.90;;;;;;5092669;28;20636;-66
2024/01/23 03:13:57;;;;;;;0.00;0.00;;;6.70;99.90;;;;;;5092608;28;20194;-66
2024/01/23 03:16:23;;;;;;;0.00;0.00;;;6.70;99.90;;;;;;5092626;28;20180;-65
2024/01/23 03:18:48;;;;;;;0.00;0.00;;;6.70;99.90;;;;;;5092551;28;20858;-66
2024/01/23 03:21:14;;;;;;;0.00;0.00;;;6.80;99.90;;;;;;5092351;28;20631;-65
2024/01/23 03:23:40;;;;;;;0.00;0.00;;;6.80;99.90;;;;;;5092465;28;20259;-65
2024/01/23 03:26:05;;;;;;;0.00;0.00;;;6.90;99.90;;;;;;5091977;28;20302;-65
2024/01/23 03:28:31;;;;;;;0.00;0.00;;;6.90;99.90;;;;;;5092482;28;20552;-65
2024/01/23 03:30:56;;;;;;;0.00;0.00;;;6.90;99.90;;;;;;5090897;28;20458;-66
2024/01/23 03:33:22;;;;;;;0.10;0.10;;;6.90;99.90;;;;;;5092292;28;20176;-65
2024/01/23 03:35:49;;;;;;;0.00;0.00;;;6.90;99.90;;;;;;5091558;28;20188;-66
2024/01/23 03:38:15;;;;;;;0.00;0.00;;;7.00;99.90;;;;;;5091974;28;20184;-66
2024/01/23 03:40:40;;;;;;;0.00;0.00;;;7.00;99.90;;;;;;5091969;28;20698;-66
2024/01/23 03:43:06;;;;;;;0.00;0.00;;;7.00;99.90;;;;;;5091661;28;20184;-66
2024/01/23 03:45:31;;;;;;;0.00;0.00;;;7.00;99.90;;;;;;5091390;28;20176;-66
2024/01/23 03:47:57;;;;;;;0.00;0.00;;;7.00;99.90;;;;;;5092020;28;20223;-66
2024/01/23 03:50:23;;;;;;;0.00;0.00;;;7.00;99.90;;;;;;5091766;28;20698;-66
2024/01/23 03:52:49;;;;;;;0.00;0.00;;;6.90;99.90;;;;;;5091374;28;20263;-66
2024/01/23 03:55:14;;;;;;;0.00;0.00;;;6.90;99.90;;;;;;5091749;28;20180;-65
2024/01/23 03:57:40;;;;;;;0.00;0.00;;;6.90;99.90;;;;;;5090412;28;20187;-65
2024/01/23 04:00:07;;;;;;;0.00;0.00;;;6.80;99.90;;;;;;5091560;28;20183;-66
2024/01/23 04:02:36;;;;;;;0.00;0.00;;;6.80;99.90;;;;;;5091944;28;20188;-65
2024/01/23 04:05:05;;;;;;;0.00;0.00;;;6.80;99.90;;;;;;5091855;28;20184;-66
2024/01/23 04:07:34;;;;;;;0.00;0.00;;;6.80;99.90;;;;;;5091856;28;20208;-66
2024/01/23 04:10:00;;;;;;;0.00;0.00;;;6.80;99.90;;;;;;5090877;28;20180;-65
2024/01/23 04:12:26;;;;;;;0.00;0.00;;;6.80;99.90;;;;;;5091085;28;20188;-65
2024/01/23 04:14:51;;;;;;;0.00;0.00;;;6.80;99.90;;;;;;5091379;28;20593;-66
2024/01/23 04:17:17;;;;;;;0.10;0.10;;;6.80;99.90;;;;;;5091307;28;20180;-65
2024/01/23 04:19:43;;;;;;;0.00;0.00;;;6.80;99.90;;;;;;5090495;28;20230;-65
2024/01/23 04:22:09;;;;;;;0.00;0.00;;;6.80;99.90;;;;;;5090483;28;20176;-66
2024/01/23 04:24:38;;;;;;;0.00;0.00;;;6.80;99.90;;;;;;5091184;28;20180;-63
2024/01/23 04:27:04;;;;;;;0.00;0.00;;;6.80;99.90;;;;;;5090928;28;20238;-65
2024/01/23 04:29:29;;;;;;;0.00;0.00;;;6.80;99.90;;;;;;5090607;28;20566;-63
2024/01/23 04:31:55;;;;;;;0.00;0.00;;;6.80;99.90;;;;;;5090875;28;20462;-63
2024/01/23 04:34:21;;;;;;;0.00;0.00;;;6.80;99.90;;;;;;5089723;28;20592;-61
2024/01/23 04:36:46;;;;;;;0.00;0.00;;;6.80;99.90;;;;;;5090345;28;20682;-63
2024/01/23 04:39:12;;;;;;;0.00;0.00;;;6.80;99.90;;;;;;5090609;28;20264;-62
2024/01/23 04:41:38;;;;;;;0.00;0.00;;;6.80;99.90;;;;;;5091437;28;20176;-60
2024/01/23 04:44:04;;;;;;;0.00;0.00;;;6.80;99.90;;;;;;5091561;28;20233;-61
2024/01/23 04:46:29;;;;;;;0.75;0.75;;;6.80;99.90;;;;;;5090924;28;20200;-64
2024/01/23 04:48:55;;;;;;;0.00;0.00;;;6.80;99.90;;;;;;5091314;28;20183;-62
2024/01/23 04:51:21;;;;;;;0.00;0.00;;;6.80;99.90;;;;;;5091186;28;20662;-63
2024/01/23 04:53:47;;;;;;;0.00;0.00;;;6.80;99.90;;;;;;5090765;28;20180;-60
2024/01/23 04:56:13;;;;;;;0.00;0.00;;;6.80;99.90;;;;;;5089712;28;20187;-65
2024/01/23 04:58:39;;;;;;;0.00;0.00;;;6.80;99.90;;;;;;5091263;28;20176;-64
2024/01/23 05:01:05;;;;;;;0.00;0.00;;;6.80;99.90;;;;;;5090545;28;20220;-64
2024/01/23 05:03:30;;;;;;;0.00;0.00;;;6.80;99.90;;;;;;5091019;28;20612;-65
2024/01/23 05:05:56;;;;;;;0.00;0.00;;;6.80;99.90;;;;;;5090636;28;20259;-63
2024/01/23 05:08:21;;;;;;;0.00;0.00;;;6.90;99.90;;;;;;5091325;28;20295;-62
2024/01/23 05:10:47;;;;;;;0.00;0.00;;;6.80;99.90;;;;;;5091133;28;20168;-62
2024/01/23 05:13:13;;;;;;;0.00;0.00;;;6.80;99.90;;;;;;5090631;28;20176;-62
2024/01/23 05:15:39;;;;;;;0.00;0.00;;;6.80;99.90;;;;;;5090973;28;20191;-63
2024/01/23 05:18:07;;;;;;;0.00;0.00;;;6.70;99.90;;;;;;5091193;28;20175;-63
2024/01/23 05:20:34;;;;;;;0.00;0.00;;;6.70;99.90;;;;;;5088153;28;20216;-62
2024/01/23 05:23:00;;;;;;;0.00;0.00;;;6.70;99.90;;;;;;5095323;28;20194;-62
2024/01/23 05:25:26;;;;;;;0.00;0.00;;;6.60;99.90;;;;;;5095256;28;20218;-62
2024/01/23 05:27:52;;;;;;;0.00;0.00;;;6.60;99.90;;;;;;5094963;28;20241;-62
2024/01/23 05:30:18;;;;;;;0.00;0.00;;;6.60;99.90;;;;;;5095374;28;20631;-63
2024/01/23 05:32:44;;;;;;;0.00;0.00;;;6.50;99.90;;;;;;5094675;28;20210;-63
2024/01/23 05:35:10;;;;;;;0.00;0.00;;;6.50;99.90;;;;;;5094887;28;20176;-63
2024/01/23 05:37:35;;;;;;;0.00;0.00;;;6.40;99.90;;;;;;5094765;28;20533;-63
2024/01/23 05:40:03;;;;;;;0.00;0.00;;;6.40;99.90;;;;;;5094686;28;20264;-63
2024/01/23 05:42:29;;;;;;;0.00;0.00;;;6.30;99.90;;;;;;5094871;28;20176;-63
2024/01/23 05:44:54;;;;;;;0.00;0.00;;;6.30;99.90;;;;;;5094658;28;20183;-64
2024/01/23 05:47:20;;;;;;;0.00;0.00;;;6.30;99.90;;;;;;5093329;28;20227;-64
2024/01/23 05:49:45;;;;;;;0.00;0.00;;;6.30;99.90;;;;;;5094710;28;20253;-64
2024/01/23 05:52:11;;;;;;;0.00;0.00;;;6.30;99.90;;;;;;5094810;28;20314;-64
2024/01/23 05:54:38;;;;;;;0.00;0.00;;;6.20;99.90;;;;;;5094746;28;20172;-64
2024/01/23 05:57:03;;;;;;;0.00;0.00;;;6.20;99.90;;;;;;5094827;28;20203;-64
2024/01/23 05:59:29;;;;;;;0.00;0.00;;;6.20;99.90;;;;;;5094593;28;20674;-63
2024/01/23 06:01:55;;;;;;;0.00;0.00;;;6.20;99.90;;;;;;5094539;28;20176;-64
2024/01/23 06:04:20;;;;;;;0.00;0.00;;;6.20;99.90;;;;;;5094548;28;20187;-63
2024/01/23 06:06:46;;;;;;;0.00;0.00;;;6.10;99.90;;;;;;5094366;28;20207;-63
2024/01/23 06:09:11;;;;;;;0.00;0.00;;;6.10;99.90;;;;;;5094578;28;20175;-64
2024/01/23 06:11:39;;;;;;;0.00;0.00;;;6.10;99.90;;;;;;5094316;28;20194;-64
2024/01/23 06:14:04;;;;;;;0.00;0.00;;;6.10;99.90;;;;;;5094450;28;20207;-64
2024/01/23 06:16:30;;;;;;;0.00;0.00;;;6.10;99.90;;;;;;5094273;28;20196;-63
2024/01/23 06:18:56;;;;;;;0.00;0.00;;;6.00;99.90;;;;;;5094329;28;20176;-64
2024/01/23 06:21:22;;;;;;;0.00;0.00;;;6.00;99.90;;;;;;5094293;28;20180;-64
2024/01/23 06:23:47;;;;;;;0.00;0.00;;;5.90;99.90;;;;;;5094291;28;20184;-64
2024/01/23 06:26:13;;;;;;;0.00;0.00;;;5.90;99.90;;;;;;5094072;28;20200;-64
2024/01/23 06:28:38;;;;;;;0.00;0.00;;;5.90;99.90;;;;;;5094092;28;20184;-64
2024/01/23 06:31:04;;;;;;;0.00;0.00;;;5.90;99.90;;;;;;5094142;28;20187;-63
2024/01/23 06:33:31;;;;;;;0.00;0.00;;;5.90;99.90;;;;;;5093038;28;20188;-63
2024/01/23 06:35:57;;;;;;;0.00;0.00;;;5.80;99.90;;;;;;5094122;28;20187;-64
2024/01/23 06:38:22;;;;;;;0.00;0.00;;;5.80;99.90;;;;;;5094089;28;20575;-64
2024/01/23 06:40:48;;;;;;;0.00;0.00;;;5.80;99.90;;;;;;5093843;28;20281;-64
2024/01/23 06:43:13;;;;;;;0.00;0.00;;;5.70;99.90;;;;;;5093991;28;20172;-64
2024/01/23 06:45:39;;;;;;;0.00;0.00;;;5.70;99.90;;;;;;5093689;28;20260;-63
2024/01/23 06:48:05;;;;;;;0.00;0.00;;;5.70;99.90;;;;;;5093827;28;20211;-64
2024/01/23 06:50:30;;;;;;;0.00;0.00;;;5.60;99.90;;;;;;5093728;28;20237;-63
2024/01/23 06:52:56;;;;;;;0.00;0.00;;;5.60;99.90;;;;;;5093840;28;20183;-64
2024/01/23 06:55:21;;;;;;;0.00;0.00;;;5.60;99.90;;;;;;5093735;28;20183;-63
2024/01/23 06:57:47;;;;;;;0.00;0.00;;;5.60;99.90;;;;;;5093635;28;20176;-63
2024/01/23 07:00:13;;;;;;;0.00;0.00;;;5.60;99.90;;;;;;5093727;28;20196;-63
2024/01/23 07:02:38;;;;;;;0.00;0.00;;;5.60;99.90;;;;;;5093348;28;20196;-63
2024/01/23 07:05:05;;;;;;;0.00;0.00;;;5.60;99.90;;;;;;5093522;28;20615;-63
2024/01/23 07:07:30;;;;;;;0.00;0.00;;;5.60;99.90;;;;;;5093262;28;20212;-63
2024/01/23 07:09:56;;;;;;;0.00;0.00;;;5.60;99.90;;;;;;5093357;28;20168;-64
2024/01/23 07:12:21;;;;;;;0.00;0.00;;;5.60;99.90;;;;;;5093250;28;20233;-63
2024/01/23 07:14:47;;;;;;;0.00;0.00;;;5.60;99.90;;;;;;5093252;28;20176;-63
2024/01/23 07:17:13;;;;;;;0.00;0.00;;;5.60;99.90;;;;;;5093272;28;20845;-63
2024/01/23 07:19:39;;;;;;;0.00;0.00;;;5.60;99.90;;;;;;5091769;28;20175;-63
2024/01/23 07:22:04;;;;;;;0.00;0.00;;;5.60;99.90;;;;;;5093212;28;20225;-64
2024/01/23 07:24:30;;;;;;;0.00;0.00;;;5.60;99.90;;;;;;5093088;28;20188;-63
2024/01/23 07:26:55;;;;;;;0.00;0.00;;;5.60;99.90;;;;;;5091717;28;20547;-63
2024/01/23 07:29:21;;;;;;;0.00;0.00;;;5.60;99.90;;;;;;5093007;28;20199;-63
2024/01/23 07:31:46;;;;;;;0.00;0.00;;;5.60;99.90;;;;;;5091752;28;20639;-63
2024/01/23 07:34:12;;;;;;;0.00;0.00;;;5.60;99.90;;;;;;5093179;28;20561;-63
2024/01/23 07:36:37;;;;;;;0.00;0.00;;;5.60;99.90;;;;;;5092835;28;20180;-63
2024/01/23 07:39:03;;;;;;;0.00;0.00;;;5.60;99.90;;;;;;5092880;28;20330;-64
2024/01/23 07:41:28;;;;;;;0.15;0.15;;;5.60;99.90;;;;;;5092885;28;20172;-63
2024/01/23 07:43:54;;;;;;;0.00;0.00;;;5.60;99.90;;;;;;5091414;28;20184;-64
2024/01/23 07:46:21;;;;;;;0.00;0.00;;;5.60;99.90;;;;;;5092630;28;20231;-63
2024/01/23 07:48:46;;;;;;;0.00;0.00;;;5.60;99.90;;;;;;5091421;28;20190;-63
2024/01/23 07:51:13;;;;;;;0.00;0.00;;;5.70;99.90;;;;;;5092568;28;20200;-63
2024/01/23 07:53:38;;;;;;;0.00;0.00;;;5.80;99.90;;;;;;5092441;28;20244;-63
2024/01/23 07:56:04;;;;;;;0.00;0.00;;;5.90;99.90;;;;;;5092576;28;20180;-64
2024/01/23 07:58:30;;;;;;;0.00;0.00;;;5.90;99.90;;;;;;5092457;28;20635;-63
2024/01/23 08:00:55;;;;;;;0.00;0.00;;;6.00;99.90;;;;;;5092563;28;20172;-63
2024/01/23 08:03:21;;;;;;;0.00;0.00;;;6.00;99.90;;;;;;5092511;28;20715;-64
2024/01/23 08:05:47;;;;;;;0.00;0.00;;;6.00;99.90;;;;;;5092407;28;20241;-63
2024/01/23 08:08:12;;;;;;;0.00;0.00;;;6.00;99.90;;;;;;5091202;28;20215;-64
2024/01/23 08:10:38;;;;;;;0.00;0.00;;;6.00;99.90;;;;;;5092175;28;20255;-64
2024/01/23 08:13:03;;;;;;;0.00;0.00;;;6.10;99.90;;;;;;5092325;28;20255;-63
2024/01/23 08:15:29;;;;;;;0.00;0.00;;;6.20;99.90;;;;;;5090932;28;20581;-63
2024/01/23 08:17:55;;;;;;;0.17;0.17;;;6.20;99.90;;;;;;5092215;28;20172;-63
2024/01/23 08:20:21;;;;;;;0.00;0.00;;;6.30;99.90;;;;;;5092128;28;20240;-63
2024/01/23 08:22:47;;;;;;;0.00;0.00;;;6.30;99.90;;;;;;5092068;28;20223;-63
2024/01/23 08:25:13;;;;;;;0.00;0.00;;;6.30;99.90;;;;;;5092495;28;20184;-62
2024/01/23 08:27:38;;;;;;;0.00;0.00;;;6.30;99.90;;;;;;5092040;28;20223;-62
2024/01/23 08:30:05;;;;;;;0.00;0.00;;;6.30;99.90;;;;;;5092404;28;20168;-63
2024/01/23 08:32:30;;;;;;;0.00;0.00;;;6.30;99.90;;;;;;5092281;28;20317;-62
2024/01/23 08:34:56;;;;;;;0.00;0.00;;;6.40;99.90;;;;;;5092193;28;20270;-62
2024/01/23 08:37:21;;;;;;;0.40;0.17;;;6.40;99.90;;;;;;5092232;28;20206;-63
2024/01/23 08:39:47;;;;;;;0.00;0.00;;;6.60;99.90;;;;;;5091410;28;20239;-63
2024/01/23 08:42:12;;;;;;;0.00;0.00;;;6.70;99.90;;;;;;5091087;28;20177;-62
2024/01/23 08:44:40;;;;;;;0.00;0.00;;;6.80;99.90;;;;;;5092248;28;20534;-63
2024/01/23 08:47:06;;;;;;;0.00;0.00;;;6.80;99.90;;;;;;5091577;28;20286;-62
2024/01/23 08:49:31;;;;;;;0.00;0.00;;;6.80;99.90;;;;;;5092252;28;20579;-62
2024/01/23 08:51:57;;;;;;;0.47;0.47;;;6.80;99.90;;;;;;5092180;28;20180;-63
2024/01/23 08:54:22;;;;;;;0.15;0.15;;;6.70;99.90;;;;;;5091506;28;20180;-63
2024/01/23 08:56:54;;;;;;;0.00;0.00;;;6.60;99.90;;;;;;5090880;28;20203;-63
2024/01/23 08:59:19;;;;;;;0.00;0.00;;;6.60;99.90;;;;;;5090288;28;20572;-63
2024/01/23 09:01:45;;;;;;;0.00;0.00;;;6.60;99.90;;;;;;5091311;28;20290;-63
2024/01/23 09:04:10;;;;;;;0.00;0.00;;;6.50;99.90;;;;;;5091284;28;20174;-63
2024/01/23 09:06:36;;;;;;;0.00;0.00;;;6.50;99.90;;;;;;5091165;28;20208;-63
2024/01/23 09:09:01;;;;;;;0.00;0.00;;;6.50;99.90;;;;;;5091146;28;20199;-63
2024/01/23 09:11:27;;;;;;;0.00;0.00;;;6.60;99.90;;;;;;5091236;28;20255;-63
2024/01/23 09:13:52;;;;;;;0.00;0.00;;;6.70;99.90;;;;;;5091113;28;20639;-64
2024/01/23 09:16:18;;;;;;;0.00;0.00;;;6.70;99.90;;;;;;5091195;28;20176;-63
2024/01/23 09:18:48;;;;;;;0.00;0.00;;;6.80;99.90;;;;;;5091156;28;20176;-63
2024/01/23 09:21:14;;;;;;;0.00;0.00;;;6.80;99.90;;;;;;5091252;28;20198;-63
2024/01/23 09:23:40;;;;;;;0.00;0.00;;;6.90;99.90;;;;;;5090979;28;20275;-63
2024/01/23 09:26:05;;;;;;;0.00;0.00;;;6.90;99.90;;;;;;5091052;28;20401;-63
2024/01/23 09:28:31;;;;;;;0.00;0.00;;;6.90;99.90;;;;;;5089820;28;20188;-64
2024/01/23 09:30:56;;;;;;;0.00;0.00;;;7.00;99.90;;;;;;5090946;28;20187;-64
2024/01/23 09:33:22;;;;;;;0.00;0.00;;;7.20;99.90;;;;;;5091119;28;20238;-63
2024/01/23 09:35:48;;;;;;;0.00;0.00;;;7.40;99.90;;;;;;5089785;28;20651;-63
2024/01/23 09:38:13;;;;;;;0.00;0.00;;;7.60;99.90;;;;;;5089993;28;20168;-63
2024/01/23 09:40:41;;;;;;;0.00;0.00;;;7.70;99.90;;;;;;5090670;28;20219;-63
2024/01/23 09:43:11;;;;;;;0.00;0.00;;;7.70;99.90;;;;;;5090758;28;20846;-63
2024/01/23 09:45:40;;;;;;;0.00;0.00;;;7.70;99.90;;;;;;5090865;28;20233;-64
2024/01/23 09:48:06;;;;;;;0.00;0.00;;;7.70;99.90;;;;;;5090798;28;20683;-63
2024/01/23 09:50:35;;;;;;;0.00;0.00;;;7.70;99.90;;;;;;5090927;28;20662;-63
2024/01/23 09:53:01;;;;;;;0.00;0.00;;;7.70;99.90;;;;;;5089575;28;20229;-63
2024/01/23 09:55:27;;;;;;;0.00;0.00;;;7.60;99.90;;;;;;5090853;28;20172;-63
2024/01/23 09:57:53;;;;;;;0.00;0.00;;;7.60;99.90;;;;;;5090686;28;20654;-63
2024/01/23 10:00:18;;;;;;;0.00;0.00;;;7.50;99.90;;;;;;5090731;28;20180;-63
2024/01/23 10:02:44;;;;;;;0.00;0.00;;;7.40;99.90;;;;;;5090779;28;20639;-63
2024/01/23 10:05:13;;;;;;;0.00;0.00;;;7.40;99.90;;;;;;5090739;28;20220;-63
2024/01/23 10:07:39;;;;;;;0.00;0.00;;;7.40;99.90;;;;;;5092802;28;20235;-63
2024/01/23 10:10:16;;;;;;;0.10;0.10;;;7.50;99.90;;;;;;5094538;28;20229;-63
2024/01/23 10:12:44;;;;;;;0.00;0.00;;;7.50;99.90;;;;;;5094396;28;20222;-63
2024/01/23 10:15:11;;;;;;;0.00;0.00;;;7.60;99.90;;;;;;5094383;28;20176;-63
2024/01/23 10:17:37;;;;;;;0.00;0.00;;;7.60;99.90;;;;;;5094070;28;20180;-64
2024/01/23 10:20:04;;;;;;;0.00;0.00;;;7.60;99.90;;;;;;5094360;28;20186;-63
2024/01/23 10:22:29;;;;;;;0.00;0.00;;;7.70;99.90;;;;;;5092853;28;20172;-62
2024/01/23 10:24:55;;;;;;;0.00;0.00;;;7.90;99.90;;;;;;5094239;28;20183;-63
2024/01/23 10:27:20;;;;;;;0.00;0.00;;;8.10;99.90;;;;;;5093974;28;20663;-64
2024/01/23 10:29:46;;;;;;;0.00;0.00;;;8.20;99.90;;;;;;5093913;28;20168;-63
2024/01/23 10:32:11;;;;;;;0.00;0.00;;;8.30;99.90;;;;;;5094077;28;20237;-63
2024/01/23 10:34:37;;;;;;;0.00;0.00;;;8.40;99.90;;;;;;5093735;28;20604;-63
2024/01/23 10:37:03;;;;;;;0.10;0.10;;;8.30;99.90;;;;;;5093870;28;20172;-63
2024/01/23 10:39:29;;;;;;;0.00;0.00;;;8.30;99.90;;;;;;5093659;28;20311;-64
2024/01/23 10:41:55;;;;;;;0.00;0.00;;;8.30;99.90;;;;;;5093920;28;20183;-64
2024/01/23 10:44:23;;;;;;;0.00;0.00;;;8.20;99.90;;;;;;5093706;28;20229;-64
2024/01/23 10:46:50;;;;;;;0.00;0.00;;;8.20;99.90;;;;;;5093529;28;20282;-64
2024/01/23 10:49:16;;;;;;;0.00;0.00;;;8.20;99.90;;;;;;5093678;28;20180;-63
2024/01/23 10:51:45;;;;;;;0.00;0.00;;;8.20;99.90;;;;;;5093439;28;20263;-63
2024/01/23 10:54:31;;;;;;;0.00;0.00;;;8.10;99.90;;;;;;5093546;28;20172;-63
2024/01/23 10:56:59;;;;;;;0.00;0.00;;;8.20;99.90;;;;;;5093519;28;20187;-63
2024/01/23 10:59:30;;;;;;;0.00;0.00;;;8.20;99.90;;;;;;5093378;28;20597;-63
2024/01/23 11:02:11;;;;;;;0.10;0.10;;;8.20;99.90;;;;;;5093411;28;20635;-63
2024/01/23 11:04:37;;;;;;;0.00;0.00;;;8.30;99.90;;;;;;5093354;28;20274;-63
2024/01/23 11:07:16;;;;;;;0.00;0.00;;;8.50;99.90;;;;;;5093471;28;20254;-63
2024/01/23 11:09:47;;;;;;;0.00;0.00;;;8.70;99.90;;;;;;5093366;28;20531;-63
2024/01/23 11:12:37;;;;;;;0.00;0.00;;;8.80;99.90;;;;;;5093323;28;20651;-63
2024/01/23 11:15:13;;;;;;;0.00;0.00;;;8.80;99.90;;;;;;5093344;28;20176;-63
2024/01/23 11:17:39;;;;;;;0.00;0.00;;;8.80;99.90;;;;;;5093078;28;20180;-63
2024/01/23 11:20:15;;;;;;;0.05;0.05;;;8.60;99.90;;;;;;5092703;28;20242;-63
2024/01/23 11:22:41;;;;;;;0.00;0.00;;;8.60;99.90;;;;;;5092927;28;20690;-63
2024/01/23 11:25:09;;;;;;;0.00;0.00;;;8.60;99.90;;;;;;5092986;28;20268;-63
2024/01/23 11:27:38;;;;;;;0.00;0.00;;;8.60;99.90;;;;;;5092845;28;20641;-63
2024/01/23 11:30:04;;;;;;;0.10;0.10;;;8.90;99.90;;;;;;5092936;28;20252;-63
2024/01/23 11:32:30;;;;;;;0.00;0.00;;;9.10;99.90;;;;;;5092914;28;20176;-63
2024/01/23 11:35:03;;;;;;;0.00;0.00;;;9.30;99.90;;;;;;5092725;28;20648;-63
2024/01/23 11:37:32;;;;;;;0.00;0.00;;;9.60;99.90;;;;;;5092588;28;20172;-63
2024/01/23 11:40:04;;;;;;;0.00;0.00;;;9.70;99.90;;;;;;5092384;28;20228;-63
2024/01/23 11:42:39;;;;;;;0.00;0.00;;;9.70;99.90;;;;;;5092747;28;20248;-63
2024/01/23 11:45:27;;;;;;;0.00;0.00;;;9.80;99.90;;;;;;5092705;28;20300;-63
2024/01/23 11:47:57;;;;;;;0.20;0.20;;;9.80;99.90;;;;;;5092593;28;20303;-63
2024/01/23 11:50:25;;;;;;;0.00;0.00;;;9.80;99.90;;;;;;5092621;28;20172;-63
2024/01/23 11:52:52;;;;;;;0.00;0.00;;;9.90;99.90;;;;;;5092395;28;20678;-63
2024/01/23 11:55:22;;;;;;;0.00;0.00;;;9.90;99.90;;;;;;5092282;28;20184;-63
2024/01/23 11:57:49;;;;;;;0.00;0.00;;;9.80;99.90;;;;;;5092287;28;20183;-63
2024/01/23 12:00:15;;;;;;;0.00;0.00;;;9.80;99.90;;;;;;5092364;28;20177;-63
2024/01/23 12:02:42;;;;;;;0.00;0.00;;;9.80;99.90;;;;;;5092022;28;20180;-63
2024/01/23 12:05:08;;;;;;;0.17;0.17;;;9.70;99.90;;;;;;5092247;28;20195;-63
2024/01/23 12:07:37;;;;;;;0.00;0.00;;;9.70;99.90;;;;;;5092082;28;20710;-63
2024/01/23 12:10:04;;;;;;;0.35;0.35;;;9.70;99.90;;;;;;5092207;28;20190;-63
2024/01/23 12:12:30;;;;;;;0.00;0.00;;;9.80;99.90;;;;;;5092050;28;20213;-63
2024/01/23 12:14:56;;;;;;;0.00;0.00;;;9.70;99.90;;;;;;5092037;28;20919;-63
2024/01/23 12:17:21;;;;;;;0.00;0.00;;;9.60;99.90;;;;;;5091827;28;20200;-63
2024/01/23 12:19:47;;;;;;;0.00;0.00;;;9.60;99.90;;;;;;5091662;28;20175;-63
2024/01/23 12:22:14;;;;;;;0.00;0.00;;;9.60;99.90;;;;;;5091915;28;20176;-63
2024/01/23 12:24:41;;;;;;;0.00;0.00;;;9.50;99.90;;;;;;5091643;28;20259;-62
2024/01/23 12:27:08;;;;;;;0.00;0.00;;;9.50;99.90;;;;;;5091883;28;20298;-63
2024/01/23 12:29:33;;;;;;;0.00;0.00;;;9.40;99.90;;;;;;5091670;28;20177;-63
2024/01/23 12:31:59;;;;;;;0.00;0.00;;;9.30;99.90;;;;;;5091069;28;20182;-62
2024/01/23 12:34:25;;;;;;;0.00;0.00;;;9.30;99.90;;;;;;5091880;28;20184;-63
2024/01/23 12:36:50;;;;;;;0.00;0.00;;;9.30;99.90;;;;;;5091627;28;20259;-64
2024/01/23 12:39:17;;;;;;;0.00;0.00;;;9.20;99.90;;;;;;5090215;28;20228;-62
2024/01/23 12:41:43;;;;;;;0.00;0.00;;;9.20;99.90;;;;;;5091464;28;20183;-63
2024/01/23 12:44:08;;;;;;;0.00;0.00;;;9.20;99.90;;;;;;5091726;28;20523;-62
2024/01/23 12:46:34;;;;;;;0.00;0.00;;;9.10;99.90;;;;;;5091502;28;20207;-63
2024/01/23 12:49:07;;;;;;;0.00;0.00;;;9.10;99.90;;;;;;5091549;28;20656;-63
2024/01/23 12:51:36;;;;;;;0.00;0.00;;;9.10;99.90;;;;;;5091513;28;20179;-62
2024/01/23 12:54:02;;;;;;;0.00;0.00;;;9.00;99.90;;;;;;5091605;28;20176;-62